createdAt,value
2019-04-20T00:01:58.161Z,8.33
2019-04-20T00:04:28.790Z,6.83
2019-04-20T00:06:56.429Z,6.83
2019-04-20T00:09:29.875Z,5.47
2019-04-20T00:12:04.076Z,5.85
2019-04-20T00:14:29.578Z,6.00
2019-04-20T00:16:56.847Z,5.90
2019-04-20T00:19:31.963Z,4.80
2019-04-20T00:22:01.983Z,5.35
2019-04-20T00:24:33.604Z,5.73
2019-04-20T00:27:30.262Z,5.70
2019-04-20T00:29:49.572Z,4.80
2019-04-20T00:32:12.358Z,5.55
2019-04-20T00:34:33.786Z,5.42
2019-04-20T00:37:00.366Z,5.55
2019-04-20T00:39:29.927Z,5.70
2019-04-20T00:42:03.472Z,5.00
2019-04-20T00:44:35.426Z,5.72
2019-04-20T00:47:08.496Z,5.72
2019-04-20T00:49:45.683Z,6.15
2019-04-20T00:57:10.486Z,5.87
2019-04-20T00:59:54.202Z,6.60
2019-04-20T01:02:18.118Z,7.25
2019-04-20T01:04:48.124Z,5.97
2019-04-20T01:07:17.543Z,6.00
2019-04-20T01:09:54.099Z,6.13
2019-04-20T01:12:27.992Z,6.90
2019-04-20T01:14:58.739Z,5.83
2019-04-20T01:17:23.387Z,6.35
2019-04-20T01:19:52.809Z,5.57
2019-04-20T01:22:24.118Z,6.10
2019-04-20T01:24:53.288Z,6.80
2019-04-20T01:27:32.454Z,6.70
2019-04-20T01:30:03.390Z,6.47
2019-04-20T01:32:32.001Z,6.58
2019-04-20T01:35:04.504Z,6.83
2019-04-20T01:37:34.014Z,6.53
2019-04-20T01:39:57.616Z,6.58
2019-04-20T01:42:23.907Z,6.53
2019-04-20T01:44:54.938Z,6.40
2019-04-20T01:47:29.941Z,6.97
2019-04-20T01:49:59.883Z,6.35
2019-04-20T01:52:28.811Z,6.70
2019-04-20T01:55:27.829Z,6.60
2019-04-20T01:58:06.092Z,7.90
2019-04-20T02:00:26.600Z,6.67
2019-04-20T02:02:57.054Z,7.57
2019-04-20T02:05:29.076Z,6.47
2019-04-20T02:07:55.210Z,7.00
2019-04-20T02:10:33.282Z,7.62
2019-04-20T02:12:57.935Z,6.03
2019-04-20T02:15:30.983Z,6.80
2019-04-20T02:18:08.878Z,7.15
2019-04-20T02:20:44.600Z,6.40
2019-04-20T02:23:09.464Z,6.90
2019-04-20T02:25:24.904Z,6.67
2019-04-20T02:28:01.707Z,6.60
2019-04-20T02:31:38.232Z,6.67
2019-04-20T02:34:04.038Z,6.53
2019-04-20T02:37:09.478Z,6.43
2019-04-20T02:41:57.844Z,7.00
2019-04-20T02:44:36.529Z,7.30
2019-04-20T02:51:55.899Z,6.65
2019-04-20T02:54:18.741Z,6.92
2019-04-20T02:57:03.387Z,6.45
2019-04-20T03:01:55.256Z,6.97
2019-04-20T03:03:58.463Z,6.67
2019-04-20T03:06:36.624Z,7.08
2019-04-20T03:09:15.587Z,6.92
2019-04-20T03:11:52.965Z,6.47
2019-04-20T03:14:10.684Z,6.85
2019-04-20T03:16:38.711Z,6.87
2019-04-20T03:19:14.136Z,7.28
2019-04-20T03:21:45.412Z,6.78
2019-04-20T03:24:18.910Z,6.37
2019-04-20T03:26:54.279Z,6.35
2019-04-20T03:29:24.147Z,6.60
2019-04-20T03:32:28.219Z,7.07
2019-04-20T03:37:08.422Z,6.92
2019-04-20T03:39:28.707Z,7.60
2019-04-20T03:41:44.460Z,7.00
2019-04-20T03:44:15.434Z,7.67
2019-04-20T03:46:47.876Z,7.60
2019-04-20T03:52:03.673Z,6.40
2019-04-20T03:54:29.799Z,7.13
2019-04-20T03:57:15.577Z,8.10
2019-04-20T04:00:00.375Z,8.20
2019-04-20T04:02:45.809Z,6.78
2019-04-20T04:05:23.831Z,6.60
2019-04-20T04:07:41.471Z,7.67
2019-04-20T04:10:20.636Z,8.95
2019-04-20T04:13:02.952Z,6.93
2019-04-20T04:15:35.179Z,7.70
2019-04-20T04:20:38.798Z,7.53
2019-04-20T04:23:19.471Z,7.60
2019-04-20T04:25:50.051Z,7.90
2019-04-20T04:28:22.580Z,7.40
2019-04-20T04:35:48.285Z,8.08
2019-04-20T04:38:28.938Z,7.58
2019-04-20T04:41:03.227Z,7.73
2019-04-20T04:43:28.486Z,8.27
2019-04-20T04:45:36.900Z,8.47
2019-04-20T04:48:12.659Z,7.15
2019-04-20T04:50:44.625Z,8.30
2019-04-20T04:53:12.063Z,9.08
2019-04-20T04:55:46.751Z,7.67
2019-04-20T04:58:06.633Z,8.08
2019-04-20T05:00:36.461Z,8.90
2019-04-20T05:03:23.281Z,7.75
2019-04-20T05:06:03.486Z,9.07
2019-04-20T05:08:23.424Z,8.63
2019-04-20T05:10:43.687Z,9.48
2019-04-20T05:13:13.565Z,9.53
2019-04-20T05:15:53.905Z,8.75
2019-04-20T05:18:41.815Z,9.88
2019-04-20T05:23:32.956Z,9.50
2019-04-20T05:26:20.415Z,9.83
2019-04-20T05:28:42.114Z,9.67
2019-04-20T05:31:03.435Z,8.87
2019-04-20T05:33:48.788Z,10.00
2019-04-20T05:36:19.198Z,10.13
2019-04-20T05:38:54.397Z,10.25
2019-04-20T05:41:16.661Z,10.68
2019-04-20T05:43:57.285Z,10.40
2019-04-20T05:46:29.152Z,10.33
2019-04-20T05:49:02.603Z,9.80
2019-04-20T05:51:35.270Z,11.43
2019-04-20T05:56:35.798Z,11.27
2019-04-20T05:58:59.872Z,11.22
2019-04-20T06:01:34.419Z,11.83
2019-04-20T06:03:57.897Z,12.75
2019-04-20T06:06:32.920Z,13.38
2019-04-20T06:09:08.569Z,13.80
2019-04-20T06:11:33.146Z,13.85
2019-04-20T06:13:50.604Z,12.95
2019-04-20T06:16:40.880Z,13.27
2019-04-20T06:19:18.168Z,14.43
2019-04-20T06:21:57.697Z,13.15
2019-04-20T06:24:36.318Z,13.70
2019-04-20T06:27:00.985Z,13.87
2019-04-20T06:29:21.956Z,13.23
2019-04-20T06:31:59.112Z,13.73
2019-04-20T06:37:02.129Z,14.30
2019-04-20T06:39:38.612Z,14.80
2019-04-20T06:44:35.639Z,13.25
2019-04-20T06:47:11.591Z,13.72
2019-04-20T06:49:35.563Z,14.60
2019-04-20T06:52:20.395Z,13.75
2019-04-20T06:54:58.180Z,12.87
2019-04-20T06:57:35.659Z,13.37
2019-04-20T07:00:04.212Z,13.25
2019-04-20T07:02:35.701Z,12.30
2019-04-20T07:04:59.967Z,13.25
2019-04-20T07:07:32.045Z,13.13
2019-04-20T07:10:11.009Z,12.80
2019-04-20T07:12:27.226Z,13.38
2019-04-20T07:14:52.974Z,12.18
2019-04-20T07:20:21.317Z,13.55
2019-04-20T07:23:09.767Z,12.82
2019-04-20T07:25:34.508Z,13.18
2019-04-20T07:28:02.189Z,13.18
2019-04-20T07:30:29.628Z,12.80
2019-04-20T07:32:57.758Z,12.33
2019-04-20T07:35:30.796Z,14.35
2019-04-20T07:40:28.738Z,13.58
2019-04-20T07:42:58.995Z,12.37
2019-04-20T07:45:35.097Z,13.15
2019-04-20T07:48:09.394Z,11.50
2019-04-20T07:50:25.092Z,11.65
2019-04-20T07:52:53.821Z,11.18
2019-04-20T07:55:40.853Z,11.22
2019-04-20T07:57:57.692Z,11.60
2019-04-20T08:00:44.777Z,10.72
2019-04-20T08:03:16.329Z,12.05
2019-04-20T08:05:54.105Z,11.90
2019-04-20T08:08:28.136Z,11.95
2019-04-20T08:10:58.666Z,11.90
2019-04-20T08:16:07.970Z,11.75
2019-04-20T08:18:41.523Z,11.75
2019-04-20T08:21:06.758Z,12.03
2019-04-20T08:25:54.392Z,11.30
2019-04-20T08:28:21.340Z,11.03
2019-04-20T08:31:06.647Z,11.50
2019-04-20T08:33:55.108Z,10.98
2019-04-20T08:36:18.652Z,10.95
2019-04-20T08:39:08.260Z,9.75
2019-04-20T08:41:15.585Z,9.05
2019-04-20T08:46:16.278Z,9.23
2019-04-20T08:48:47.953Z,9.13
2019-04-20T08:51:22.705Z,9.45
2019-04-20T08:53:46.569Z,9.50
2019-04-20T08:56:11.910Z,9.40
2019-04-20T08:58:27.776Z,9.08
2019-04-20T09:01:01.556Z,10.15
2019-04-20T09:03:31.725Z,9.48
2019-04-20T09:06:06.528Z,9.28
2019-04-20T09:08:37.937Z,8.75
2019-04-20T09:11:14.410Z,8.45
2019-04-20T09:13:38.613Z,7.95
2019-04-20T09:15:57.975Z,8.63
2019-04-20T09:18:34.357Z,8.68
2019-04-20T09:21:05.722Z,8.83
2019-04-20T09:23:54.644Z,9.10
2019-04-20T09:26:21.709Z,8.15
2019-04-20T09:28:58.981Z,7.30
2019-04-20T09:31:43.284Z,7.83
2019-04-20T09:34:20.348Z,7.40
2019-04-20T09:36:47.229Z,7.67
2019-04-20T09:39:33.774Z,7.15
2019-04-20T09:42:01.611Z,8.30
2019-04-20T09:44:37.573Z,8.00
2019-04-20T09:47:03.362Z,7.45
2019-04-20T09:49:43.851Z,6.42
2019-04-20T09:52:14.560Z,6.50
2019-04-20T09:54:52.868Z,6.72
2019-04-20T09:57:22.089Z,7.37
2019-04-20T09:59:49.970Z,7.25
2019-04-20T10:02:07.729Z,7.00
2019-04-20T10:04:33.457Z,6.58
2019-04-20T10:07:07.940Z,5.67
2019-04-20T10:09:37.709Z,6.72
2019-04-20T10:12:03.765Z,5.85
2019-04-20T10:14:33.125Z,5.78
2019-04-20T10:17:02.124Z,5.62
2019-04-20T10:19:34.066Z,6.08
2019-04-20T10:22:02.394Z,5.60
2019-04-20T10:24:31.085Z,6.15
2019-04-20T10:27:00.720Z,5.72
2019-04-20T10:29:29.414Z,6.08
2019-04-20T10:32:00.669Z,4.85
2019-04-20T10:34:28.461Z,5.30
2019-04-20T10:36:59.641Z,5.85
2019-04-20T10:39:30.799Z,5.62
2019-04-20T10:42:02.433Z,5.15
2019-04-20T10:44:29.586Z,5.53
2019-04-20T10:46:58.781Z,5.87
2019-04-20T10:49:27.529Z,5.67
2019-04-20T10:51:56.026Z,5.53
2019-04-20T10:54:24.752Z,5.53
2019-04-20T10:56:53.476Z,5.40
2019-04-20T10:59:21.925Z,4.28
2019-04-20T11:01:51.716Z,5.40
2019-04-20T11:04:20.901Z,5.55
2019-04-20T11:06:52.432Z,5.60
2019-04-20T11:09:21.010Z,4.72
2019-04-20T11:11:50.281Z,5.90
2019-04-20T11:14:26.333Z,5.97
2019-04-20T11:19:17.168Z,6.03
2019-04-20T11:21:46.303Z,5.35
2019-04-20T11:24:16.265Z,5.42
2019-04-20T11:26:46.493Z,5.97
2019-04-20T11:31:48.838Z,5.17
2019-04-20T11:34:14.872Z,5.05
2019-04-20T11:39:14.756Z,6.42
2019-04-20T11:41:43.606Z,6.10
2019-04-20T11:44:13.669Z,5.33
2019-04-20T11:46:42.958Z,5.65
2019-04-20T11:49:13.099Z,7.50
2019-04-20T11:51:41.741Z,7.60
2019-04-20T11:54:10.494Z,5.28
2019-04-20T11:56:43.526Z,6.17
2019-04-20T11:59:09.574Z,5.72
2019-04-20T12:02:02.001Z,5.90
2019-04-20T12:04:42.038Z,6.37
2019-04-20T12:07:06.812Z,7.65
2019-04-20T12:09:35.532Z,7.08
2019-04-20T12:12:14.220Z,6.50
2019-04-20T12:14:34.654Z,6.40
2019-04-20T12:17:03.798Z,5.47
2019-04-20T12:19:35.933Z,5.93
2019-04-20T12:24:31.254Z,6.67
2019-04-20T12:27:00.748Z,6.47
2019-04-20T12:29:29.918Z,6.08
2019-04-20T12:32:02.256Z,7.43
2019-04-20T12:34:28.797Z,6.25
2019-04-20T12:36:58.324Z,6.42
2019-04-20T12:39:27.067Z,6.42
2019-04-20T12:41:58.761Z,6.78
2019-04-20T12:44:25.913Z,6.40
2019-04-20T12:46:54.369Z,6.25
2019-04-20T12:49:23.418Z,6.92
2019-04-20T12:51:57.554Z,6.80
2019-04-20T12:56:52.708Z,6.65
2019-04-20T13:01:51.269Z,6.25
2019-04-20T13:06:52.382Z,6.35
2019-04-20T13:09:20.914Z,6.60
2019-04-20T13:12:02.596Z,6.65
2019-04-20T13:14:38.247Z,7.62
2019-04-20T13:17:08.250Z,7.53
2019-04-20T13:22:07.236Z,7.33
2019-04-20T13:24:36.980Z,6.50
2019-04-20T13:27:06.796Z,6.95
2019-04-20T13:32:03.867Z,7.05
2019-04-20T13:34:32.310Z,7.25
2019-04-20T13:37:02.188Z,7.12
2019-04-20T13:39:31.062Z,7.22
2019-04-20T13:42:08.692Z,6.67
2019-04-20T13:44:30.707Z,8.08
2019-04-20T13:47:00.817Z,7.25
2019-04-20T13:51:58.826Z,6.90
2019-04-20T13:54:28.195Z,6.92
2019-04-20T13:56:59.641Z,7.20
2019-04-20T13:59:45.794Z,6.05
2019-04-20T14:02:17.135Z,5.87
2019-04-20T14:04:54.831Z,6.50
2019-04-20T14:07:24.793Z,6.62
2019-04-20T14:09:53.549Z,6.47
2019-04-20T14:12:29.632Z,5.90
2019-04-20T14:14:53.148Z,5.05
2019-04-20T14:17:23.287Z,6.85
2019-04-20T14:19:53.030Z,5.90
2019-04-20T14:22:23.006Z,5.85
2019-04-20T14:24:53.095Z,5.45
2019-04-20T14:27:21.967Z,5.40
2019-04-20T14:29:50.904Z,4.78
2019-04-20T14:32:20.846Z,4.80
2019-04-20T14:37:17.549Z,5.05
2019-04-20T14:39:46.248Z,4.35
2019-04-20T14:42:26.966Z,4.42
2019-04-20T14:44:45.994Z,3.95
2019-04-20T14:47:15.754Z,4.67
2019-04-20T14:49:44.708Z,4.20
2019-04-20T14:52:13.488Z,4.17
2019-04-20T14:54:43.459Z,3.85
2019-04-20T14:57:12.171Z,4.03
2019-04-20T14:59:43.440Z,3.80
2019-04-20T15:02:15.229Z,4.22
2019-04-20T15:04:45.256Z,4.25
2019-04-20T15:09:42.826Z,4.37
2019-04-20T15:14:40.831Z,3.90
2019-04-20T15:17:11.037Z,3.83
2019-04-20T15:19:41.428Z,3.20
2019-04-20T15:22:29.464Z,4.03
2019-04-20T15:24:58.189Z,3.62
2019-04-20T15:27:26.636Z,3.62
2019-04-20T15:32:25.063Z,3.25
2019-04-20T15:34:55.007Z,3.22
2019-04-20T15:37:23.544Z,3.08
2019-04-20T15:39:52.819Z,3.35
2019-04-20T15:42:21.430Z,3.00
2019-04-20T15:44:51.327Z,3.40
2019-04-20T15:47:20.301Z,2.92
2019-04-20T15:49:49.802Z,3.47
2019-04-20T15:52:25.502Z,3.12
2019-04-20T15:54:49.705Z,2.90
2019-04-20T15:57:22.998Z,2.80
2019-04-20T15:59:48.656Z,2.58
2019-04-20T16:02:18.890Z,3.00
2019-04-20T16:04:52.588Z,3.00
2019-04-20T16:07:21.488Z,3.00
2019-04-20T16:09:51.466Z,3.10
2019-04-20T16:12:20.837Z,3.65
2019-04-20T16:14:49.557Z,3.47
2019-04-20T16:17:19.500Z,3.60
2019-04-20T16:19:56.616Z,3.75
2019-04-20T16:22:19.939Z,3.87
2019-04-20T16:27:29.708Z,3.60
2019-04-20T16:29:59.818Z,3.60
2019-04-20T16:32:28.558Z,3.90
2019-04-20T16:34:58.279Z,3.20
2019-04-20T16:37:26.877Z,3.42
2019-04-20T16:39:56.540Z,2.77
2019-04-20T16:42:26.556Z,2.90
2019-04-20T16:44:55.361Z,3.10
2019-04-20T16:47:24.081Z,3.77
2019-04-20T16:49:52.887Z,3.20
2019-04-20T16:52:21.466Z,2.85
2019-04-20T16:54:50.138Z,3.80
2019-04-20T16:57:19.644Z,3.55
2019-04-20T16:59:51.233Z,2.75
2019-04-20T17:02:20.847Z,2.85
2019-04-20T17:07:20.648Z,3.33
2019-04-20T17:09:52.419Z,3.22
2019-04-20T17:12:23.740Z,3.35
2019-04-20T17:14:53.682Z,2.60
2019-04-20T17:17:22.377Z,3.37
2019-04-20T17:19:51.467Z,3.10
2019-04-20T17:22:21.374Z,3.10
2019-04-20T17:24:51.376Z,2.67
2019-04-20T17:27:23.348Z,3.37
2019-04-20T17:30:13.275Z,2.75
2019-04-20T17:32:43.361Z,3.00
2019-04-20T17:35:21.963Z,3.35
2019-04-20T17:37:46.319Z,2.90
2019-04-20T17:40:34.209Z,3.62
2019-04-20T17:42:55.484Z,3.10
2019-04-20T17:48:03.175Z,3.10
2019-04-20T17:53:03.100Z,2.60
2019-04-20T17:55:27.054Z,2.83
2019-04-20T17:57:51.111Z,2.80
2019-04-20T18:00:31.034Z,2.65
2019-04-20T18:03:24.610Z,3.02
2019-04-20T18:05:57.071Z,3.10
2019-04-20T18:08:27.087Z,2.90
2019-04-20T18:10:52.182Z,2.12
2019-04-20T18:15:52.795Z,2.70
2019-04-20T18:18:39.062Z,2.47
2019-04-20T18:20:58.980Z,2.75
2019-04-20T18:23:35.881Z,2.58
2019-04-20T18:26:17.145Z,2.85
2019-04-20T18:28:51.641Z,2.87
2019-04-20T18:33:36.641Z,2.98
2019-04-20T18:36:04.211Z,2.55
2019-04-20T18:38:38.876Z,2.75
2019-04-20T18:41:07.789Z,3.58
2019-04-20T18:46:20.241Z,2.62
2019-04-20T18:51:03.820Z,3.02
2019-04-20T18:53:40.748Z,2.30
2019-04-20T18:56:04.302Z,2.95
2019-04-20T18:58:33.297Z,3.02
2019-04-20T19:01:03.153Z,2.75
2019-04-20T19:03:35.702Z,2.92
2019-04-20T19:06:02.268Z,3.00
2019-04-20T19:08:38.147Z,3.37
2019-04-20T19:11:06.812Z,3.65
2019-04-20T19:16:16.528Z,4.15
2019-04-20T19:18:57.443Z,3.45
2019-04-20T19:21:13.098Z,3.85
2019-04-20T19:23:50.494Z,3.80
2019-04-20T19:26:16.317Z,4.08
2019-04-20T19:28:46.942Z,4.45
2019-04-20T19:31:29.003Z,5.03
2019-04-20T19:34:02.138Z,4.20
2019-04-20T19:36:24.519Z,4.62
2019-04-20T19:38:58.044Z,5.65
2019-04-20T19:41:25.479Z,5.25
2019-04-20T19:43:56.409Z,5.08
2019-04-20T19:48:52.666Z,5.55
2019-04-20T19:51:34.263Z,6.22
2019-04-20T19:54:09.450Z,6.45
2019-04-20T19:56:31.037Z,6.95
2019-04-20T20:01:13.701Z,7.80
2019-04-20T20:03:43.665Z,8.05
2019-04-20T20:06:23.757Z,8.00
2019-04-20T20:08:50.318Z,8.28
2019-04-20T20:11:18.513Z,8.08
2019-04-20T20:13:48.307Z,8.68
2019-04-20T20:16:26.271Z,9.03
2019-04-20T20:18:54.509Z,10.15
2019-04-20T20:21:23.838Z,9.20
2019-04-20T20:23:43.902Z,9.88
2019-04-20T20:26:20.693Z,9.58
2019-04-20T20:28:50.743Z,10.45
2019-04-20T20:31:27.553Z,10.60
2019-04-20T20:34:00.364Z,10.13
2019-04-20T20:36:19.378Z,10.70
2019-04-20T20:38:49.296Z,11.25
2019-04-20T20:41:20.527Z,10.10
2019-04-20T20:43:56.344Z,9.58
2019-04-20T20:46:25.227Z,10.40
2019-04-20T20:49:07.016Z,9.23
2019-04-20T20:51:37.850Z,8.55
2019-04-20T20:53:54.392Z,10.40
2019-04-20T20:56:22.070Z,9.30
2019-04-20T20:58:57.393Z,10.00
2019-04-20T21:01:22.137Z,10.32
2019-04-20T21:03:49.081Z,9.48
2019-04-20T21:06:17.329Z,10.00
2019-04-20T21:08:51.481Z,9.85
2019-04-20T21:11:21.644Z,9.43
2019-04-20T21:13:48.614Z,5.75
2019-04-20T21:16:20.855Z,5.92
2019-04-20T21:19:01.027Z,5.37
2019-04-20T21:21:27.485Z,4.67
2019-04-20T21:23:58.119Z,4.42
2019-04-20T21:26:27.063Z,4.17
2019-04-20T21:28:50.106Z,3.98
2019-04-20T21:31:23.642Z,4.53
2019-04-20T21:33:49.105Z,4.40
2019-04-20T21:36:21.446Z,3.95
2019-04-20T21:38:48.643Z,3.85
2019-04-20T21:41:21.616Z,4.55
2019-04-20T21:43:49.723Z,4.70
2019-04-20T21:46:20.906Z,4.12
2019-04-20T21:49:01.725Z,4.62
2019-04-20T21:51:32.142Z,4.30
2019-04-20T21:53:49.833Z,4.53
2019-04-20T21:56:19.678Z,4.17
2019-04-20T21:58:54.475Z,4.78
2019-04-20T22:01:29.771Z,4.55
2019-04-20T22:03:50.277Z,4.80
2019-04-20T22:06:20.055Z,4.67
2019-04-20T22:08:54.455Z,4.35
2019-04-20T22:11:19.994Z,4.28
2019-04-20T22:13:50.879Z,4.25
2019-04-20T22:16:21.939Z,4.28
2019-04-20T22:18:58.178Z,4.45
2019-04-20T22:21:26.585Z,4.30
2019-04-20T22:24:04.151Z,4.53
2019-04-20T22:26:28.735Z,4.85
2019-04-20T22:28:50.105Z,5.00
2019-04-20T22:31:20.234Z,4.72
2019-04-20T22:33:50.452Z,4.65
2019-04-20T22:36:20.225Z,4.45
2019-04-20T22:39:09.642Z,4.08
2019-04-20T22:41:46.684Z,4.25
2019-04-20T22:44:15.455Z,3.90
2019-04-20T22:46:43.961Z,3.67
2019-04-20T22:49:29.485Z,4.25
2019-04-20T22:51:53.230Z,4.53
2019-04-20T22:54:28.046Z,4.12
2019-04-20T22:56:55.117Z,3.90
2019-04-20T22:59:16.503Z,4.00
2019-04-20T23:01:48.520Z,4.67
2019-04-20T23:04:12.978Z,4.30
2019-04-20T23:06:46.262Z,4.40
2019-04-20T23:09:14.691Z,3.95
2019-04-20T23:14:10.999Z,4.03
2019-04-20T23:16:43.912Z,4.03
2019-04-20T23:19:10.131Z,4.15
2019-04-20T23:21:40.135Z,4.30
2019-04-20T23:24:11.179Z,3.90
2019-04-20T23:26:42.110Z,3.58
2019-04-20T23:29:09.382Z,4.12
2019-04-20T23:31:38.974Z,4.03
2019-04-20T23:34:14.387Z,4.25
2019-04-20T23:36:42.506Z,4.58
2019-04-20T23:39:08.727Z,4.15
2019-04-20T23:41:37.680Z,4.15
2019-04-20T23:44:18.846Z,3.85
2019-04-20T23:47:01.137Z,4.28
2019-04-20T23:49:31.783Z,3.90
2019-04-20T23:52:21.951Z,4.10
2019-04-20T23:54:33.152Z,4.05
2019-04-20T23:59:32.454Z,4.55
